CheckWX is a tool to help pilots better visualize weather data.  It is not intended as a substitute for an official pre-flight weather briefing.

20:47:23 UTC

WIDD TAF
Hang Nadim International Airport
Batam Island, Indonesia
TAF WIDD 291700Z 2918/3018 01005KT 8000 SCT014 PROB30 TEMPO 2920/2923 5000 -RA

Jan-29@
18:00 UTC

Jan-29 @ 18:00 UTC

Jan-30@
18:00 UTC

Jan-30 @ 18:00 UTC

TAF WIDD 291700Z 2918/3018 01005KT 8000 SCT014
Wind
  • 010° at 5 KTS
Cloud Levels
  • Scattered at 1,400' AGL

Jan-29@
20:00 UTC

Jan-29 @ 20:00 UTC

Jan-29@
23:00 UTC

Jan-29 @ 23:00 UTC

PROB30 TEMPO 2920/2923 5000 -RA

Temporary - 30% Likelihood

Temporary - 30% Likelihood during this time.

Conditions
Light Rain